Weather History for Suffolk, VA

Change the Weather History Date:

Tuesday, May 7, 2013

  Actual Average Record
Temperature  
Mean Temperature 67 °F -  
Max Temperature 77 °F 74 °F 93 °F (1986)
Min Temperature 57 °F 52 °F 37 °F (1951)
Cooling Degree Days 2    
Growing Degree Days 17 (Base 50)    
Moisture  
Dew Point 60 °F    
Average Humidity 85    
Maximum Humidity 100    
Minimum Humidity 44    
Precipitation  
Precipitation 0.20 in - - ()
Sea Level Pressure  
Sea Level Pressure 29.92 in    
Wind  
Wind Speed 6 mph (SE)    
Max Wind Speed 15 mph    
Max Gust Speed 20 mph    
Visibility 9 miles    
Events Rain , Thunderstorm    
Averages and records for this station are not official NWS values.
T = Trace of Precipitation, MM = Missing Value Source: NWS Daily Summary

Daily Weather History Graph

Daily Weather History Graph

Search for Another Location

Airport:

Trip Planner

Search our weather history database for the weather conditions in past years. The results will help you decide how hot, cold, wet, or windy it might be!

Date:

Astronomy

May. 07, 2013 Rise Set
Actual Time 6:06 AM EDT 8:00 PM EDT
Civil Twilight 5:37 AM EDT 8:28 PM EDT
Nautical Twilight 5:03 AM EDT 9:02 PM EDT
Astronomical Twilight 4:27 AM EDT 9:39 PM EDT
Moon 4:35 AM EDT (5/7) 6:00 PM EDT (5/7)
Length of Visible Light 14h 50m
Length of Day
13h 54m
Waning Crescent, 5% of the Moon is Illuminated
May 7
Waning Crescent
May 9
New
May 18
First Quarter
May 25
Full
May 31
Last Quarter

Hourly Weather History & Observations

Time (EDT) Temp. Dew Point Humidity Pressure Visibility Wind Dir Wind Speed Gust Speed Precip Events Conditions
12:15 AM 62.6 °F 60.8 °F 94% 29.96 in 10.0 mi East 5.8 mph - N/A   Scattered Clouds
12:35 AM 60.8 °F 60.8 °F 100% 29.96 in 7.0 mi East 4.6 mph - N/A   Scattered Clouds
12:55 AM 60.8 °F 60.8 °F 100% 29.95 in 10.0 mi East 6.9 mph - N/A   Scattered Clouds
1:15 AM 60.8 °F 60.8 °F 100% 29.95 in 10.0 mi East 8.1 mph - N/A   Clear
1:35 AM 62.6 °F 62.6 °F 100% 29.94 in 10.0 mi East 5.8 mph - N/A   Scattered Clouds
1:55 AM 62.6 °F 62.6 °F 100% 29.93 in 7.0 mi East 5.8 mph - N/A   Mostly Cloudy
2:15 AM 62.6 °F 62.6 °F 100% 29.92 in 7.0 mi ENE 5.8 mph - N/A Rain , Thunderstorm Light Thunderstorms and Rain
2:35 AM 62.6 °F 62.6 °F 100% 29.92 in 7.0 mi East 6.9 mph - N/A   Overcast
2:55 AM 62.6 °F 62.6 °F 100% 29.91 in 7.0 mi East 4.6 mph - N/A   Mostly Cloudy
3:15 AM 62.6 °F 62.6 °F 100% 29.90 in 10.0 mi ENE 4.6 mph - N/A   Mostly Cloudy
3:35 AM 62.6 °F 62.6 °F 100% 29.91 in 7.0 mi ENE 5.8 mph - N/A   Scattered Clouds
4:15 AM 60.8 °F 60.8 °F 100% 29.90 in 10.0 mi East 3.5 mph - 0.01 in   Scattered Clouds
4:35 AM 60.8 °F 60.8 °F 100% 29.91 in 10.0 mi East 6.9 mph - 0.01 in   Mostly Cloudy
4:55 AM 60.8 °F 60.8 °F 100% 29.90 in 10.0 mi East 5.8 mph - 0.01 in   Mostly Cloudy
5:15 AM 60.8 °F 60.8 °F 100% 29.90 in 10.0 mi East 5.8 mph - N/A Thunderstorm Scattered Clouds
5:35 AM 60.8 °F 60.8 °F 100% 29.89 in 10.0 mi East 5.8 mph - N/A Thunderstorm Clear
5:55 AM 60.8 °F 60.8 °F 100% 29.89 in 10.0 mi East 4.6 mph - N/A Thunderstorm Clear
6:15 AM 60.8 °F 60.8 °F 100% 29.90 in 7.0 mi East 3.5 mph - N/A Thunderstorm Scattered Clouds
6:35 AM 60.8 °F 60.8 °F 100% 29.90 in 10.0 mi Calm Calm - N/A   Scattered Clouds
6:55 AM 60.8 °F 60.8 °F 100% 29.91 in 7.0 mi Calm Calm - N/A   Scattered Clouds
7:15 AM 60.8 °F 60.8 °F 100% 29.91 in 7.0 mi ENE 4.6 mph - N/A   Mostly Cloudy
7:35 AM 60.8 °F 60.8 °F 100% 29.91 in 7.0 mi East 4.6 mph - N/A   Overcast
7:55 AM 62.6 °F 62.6 °F 100% 29.91 in 7.0 mi ESE 4.6 mph - N/A   Overcast
8:15 AM 62.6 °F 62.6 °F 100% 29.92 in 7.0 mi SE 6.9 mph - N/A   Overcast
8:35 AM 64.4 °F 62.6 °F 94% 29.93 in 7.0 mi ESE 5.8 mph - N/A   Overcast
8:55 AM 64.4 °F 64.4 °F 100% 29.93 in 7.0 mi SE 6.9 mph - N/A   Overcast
9:15 AM 66.2 °F 64.4 °F 94% 29.93 in 7.0 mi SE 5.8 mph - N/A   Overcast
9:35 AM 66.2 °F 64.4 °F 94% 29.93 in 10.0 mi ESE 8.1 mph - N/A   Mostly Cloudy
9:55 AM 68.0 °F 64.4 °F 88% 29.93 in 10.0 mi SE 6.9 mph - N/A   Scattered Clouds
10:15 AM 69.8 °F 64.4 °F 83% 29.94 in 10.0 mi ESE 9.2 mph - N/A   Clear
10:35 AM 69.8 °F 64.4 °F 83% 29.94 in 10.0 mi ESE 6.9 mph - N/A   Scattered Clouds
10:55 AM 71.6 °F 64.4 °F 78% 29.94 in 10.0 mi ESE 6.9 mph - N/A   Scattered Clouds
11:15 AM 71.6 °F 62.6 °F 73% 29.94 in 10.0 mi SSE 5.8 mph - N/A   Mostly Cloudy
11:35 AM 71.6 °F 64.4 °F 78% 29.93 in 10.0 mi SSE 5.8 mph - N/A   Scattered Clouds
11:55 AM 71.6 °F 60.8 °F 69% 29.93 in 10.0 mi South 9.2 mph - N/A   Mostly Cloudy
12:15 PM 73.4 °F 60.8 °F 65% 29.92 in 10.0 mi SSE 9.2 mph - N/A   Scattered Clouds
12:35 PM 73.4 °F 60.8 °F 65% 29.92 in 10.0 mi SSE 12.7 mph - N/A   Clear
12:55 PM 73.4 °F 60.8 °F 65% 29.92 in 10.0 mi South 8.1 mph - N/A   Scattered Clouds
1:15 PM 73.4 °F 60.8 °F 65% 29.91 in 10.0 mi SSE 6.9 mph - N/A   Mostly Cloudy
1:35 PM 75.2 °F 59.0 °F 57% 29.90 in 10.0 mi South 11.5 mph 16.1 mph N/A   Scattered Clouds
1:55 PM 75.2 °F 57.2 °F 53% 29.90 in 10.0 mi South 11.5 mph - N/A   Scattered Clouds
2:15 PM 75.2 °F 57.2 °F 53% 29.90 in 10.0 mi SE 9.2 mph - N/A   Scattered Clouds
2:35 PM 75.2 °F 55.4 °F 50% 29.89 in 10.0 mi South 15.0 mph 18.4 mph N/A   Clear
2:55 PM 77.0 °F 55.4 °F 47% 29.88 in 10.0 mi South 13.8 mph - N/A   Clear
3:15 PM 75.2 °F 55.4 °F 50% 29.88 in 10.0 mi SSE 9.2 mph - N/A   Clear
3:35 PM 75.2 °F 51.8 °F 44% 29.87 in 10.0 mi SSW 12.7 mph 19.6 mph N/A   Clear
3:55 PM 77.0 °F 53.6 °F 44% 29.87 in 10.0 mi SSW 10.4 mph - N/A   Scattered Clouds
4:15 PM 75.2 °F 53.6 °F 47% 29.86 in 10.0 mi SSE 6.9 mph - N/A   Mostly Cloudy
4:35 PM 75.2 °F 55.4 °F 50% 29.86 in 10.0 mi SSW 9.2 mph - N/A   Mostly Cloudy
4:55 PM 71.6 °F 59.0 °F 64% 29.87 in 5.0 mi SSE 4.6 mph - 0.07 in Rain Heavy Rain
5:15 PM 69.8 °F 62.6 °F 78% 29.87 in 10.0 mi SSE 4.6 mph - N/A   Mostly Cloudy
5:35 PM 69.8 °F 62.6 °F 78% 29.88 in 10.0 mi SSE 4.6 mph - N/A   Mostly Cloudy
5:55 PM 69.8 °F 57.2 °F 64% 29.88 in 7.0 mi WSW 11.5 mph 17.3 mph 0.03 in Rain Rain
6:15 PM 64.4 °F 60.8 °F 88% 29.89 in 10.0 mi SW 5.8 mph - 0.03 in   Scattered Clouds
6:35 PM 64.4 °F 60.8 °F 88% 29.90 in 10.0 mi WSW 3.5 mph - 0.03 in   Scattered Clouds
6:55 PM 64.4 °F 60.8 °F 88% 29.91 in 10.0 mi Calm Calm - 0.03 in   Mostly Cloudy
7:15 PM 62.6 °F 60.8 °F 94% 29.92 in 10.0 mi South 4.6 mph - 0.03 in Rain Light Rain
7:35 PM 62.6 °F 60.8 °F 94% 29.92 in 10.0 mi Calm Calm - 0.05 in Rain Light Rain
7:55 PM 62.6 °F 60.8 °F 94% 29.93 in 10.0 mi Calm Calm - 0.06 in   Overcast
8:15 PM 60.8 °F 60.8 °F 100% 29.94 in 7.0 mi East 4.6 mph - N/A   Overcast
8:35 PM 60.8 °F 60.8 °F 100% 29.94 in 10.0 mi Calm Calm - N/A   Overcast
8:55 PM 60.8 °F 59.0 °F 94% 29.94 in 10.0 mi ESE 3.5 mph - N/A   Scattered Clouds
9:15 PM 60.8 °F 57.2 °F 88% 29.95 in 10.0 mi SE 3.5 mph - N/A   Mostly Cloudy
9:35 PM 60.8 °F 57.2 °F 88% 29.95 in 10.0 mi SE 5.8 mph - N/A   Overcast
9:55 PM 60.8 °F 57.2 °F 88% 29.96 in 10.0 mi SSE 5.8 mph - N/A   Mostly Cloudy
10:15 PM 59.0 °F 55.4 °F 88% 29.97 in 10.0 mi SE 4.6 mph - N/A   Scattered Clouds
10:35 PM 57.2 °F 55.4 °F 94% 29.98 in 10.0 mi SE 4.6 mph - N/A   Scattered Clouds
10:55 PM 57.2 °F 55.4 °F 94% 29.98 in 10.0 mi SE 4.6 mph - N/A   Overcast
11:15 PM 57.2 °F 55.4 °F 94% 29.98 in 10.0 mi SE 4.6 mph - N/A   Mostly Cloudy
11:35 PM 57.2 °F 55.4 °F 94% 29.98 in 10.0 mi SSE 5.8 mph - N/A   Clear
11:55 PM 57.2 °F 55.4 °F 94% 29.98 in 10.0 mi SSE 4.6 mph - N/A   Clear